Sunny Gloria — 3FDL8 — position and weather

sailwx.info

Track history (hours):
 
Tides and Currents Weather Stations Pressure Air Temp Water Temp Dewpoint Dewpoint Depression Visibility Wind Speed Wind Dir Waves Ship Positions

Sunny Gloria

Last reported at 2018-Jan-30 01:25 UTC. Time now 2018-Feb-19 22:16 UTC.
Position N 25°06' E 122°35'.
Warning: this ship's position is 20 days out of date.

Length 186 m; draft 11.4 m.

Type: Cargo ship. MMSI: 351991000.

Date/timePositionNaut miles runAvg speedWind from/ knotsBaromVisibWave heightAir tempDewpointWater temp
2018-Jan-30 01:25N 25°06' E 122°35'410.3
2018-Jan-30 01:00N 25°02' E 122°35'510.3
2018-Jan-30 00:30N 24°57' E 122°35'510.2
2018-Jan-30 00:00N 24°52' E 122°34'5 9.9
2018-Jan-29 23:30N 24°47' E 122°33'5 9.1
2018-Jan-29 23:00N 24°42' E 122°32'4 8.7
2018-Jan-29 22:30N 24°38' E 122°31'4 8.8
2018-Jan-29 22:00N 24°34' E 122°30'4 8.5
2018-Jan-29 21:30N 24°30' E 122°30'4 7.9
2018-Jan-29 21:00N 24°26' E 122°29'4 7.8
2018-Jan-29 20:30N 24°22' E 122°28'4 7.9
2018-Jan-29 20:00N 24°18' E 122°27'4 7.7
2018-Jan-29 19:30N 24°14' E 122°26'4 7.4
2018-Jan-29 19:00N 24°11' E 122°25'4 7.3
2018-Jan-29 18:30N 24°07' E 122°24'4 7.3
2018-Jan-29 18:00N 24°04' E 122°23'3 7.0
2018-Jan-29 17:30N 24°00' E 122°22'4 6.9
2018-Jan-29 17:00N 23°57' E 122°20'3 6.7
2018-Jan-29 16:30N 23°54' E 122°19'64 6.8
2018-Jan-29 07:04N 22°56' E 121°49'1 7.2
2018-Jan-29 06:52N 22°55' E 121°49'3 6.8
2018-Jan-29 06:28N 22°52' E 121°48'4 6.9
2018-Jan-29 05:53N 22°49' E 121°46'3 6.9
2018-Jan-29 05:30N 22°46' E 121°45'3 6.7
2018-Jan-29 05:00N 22°43' E 121°44'12 6.5
2018-Jan-29 03:10N 22°32' E 121°40'2 6.5
2018-Jan-29 02:54N 22°30' E 121°40'3 6.2
2018-Jan-29 02:30N 22°27' E 121°40'3 6.2
2018-Jan-29 02:00N 22°25' E 121°38'15 5.3
2018-Jan-28 23:12N 22°16' E 121°25'1 5.0
2018-Jan-28 23:00N 22°16' E 121°24'3 5.4
2018-Jan-28 22:30N 22°14' E 121°22'3 5.5
2018-Jan-28 21:59N 22°11' E 121°20'4 5.9
2018-Jan-28 21:21N 22°08' E 121°18'3 6.4
2018-Jan-28 20:57N 22°06' E 121°17'5 7.0
2018-Jan-28 20:18N 22°01' E 121°15'3 6.9
2018-Jan-28 19:52N 21°59' E 121°13'  
Track history (hours):
 
Tides and Currents Weather Stations Pressure Air Temp Water Temp Dewpoint Dewpoint Depression Visibility Wind Speed Wind Dir Waves Ship Positions

Sunny Gloria

Last reported at 2018-Jan-30 01:25 UTC. Time now 2018-Feb-19 22:16 UTC.
Position N 25°06' E 122°35'.
Warning: this ship's position is 20 days out of date.

Length 186 m; draft 11.4 m.

Type: Cargo ship. MMSI: 351991000.

Date/timePositionNaut miles runAvg speedWind from/ knotsBaromVisibWave heightAir tempDewpointWater temp
2018-Jan-30 01:25N 25°06' E 122°35'410.3
2018-Jan-30 01:00N 25°02' E 122°35'510.3
2018-Jan-30 00:30N 24°57' E 122°35'510.2
2018-Jan-30 00:00N 24°52' E 122°34'5 9.9
2018-Jan-29 23:30N 24°47' E 122°33'5 9.1
2018-Jan-29 23:00N 24°42' E 122°32'4 8.7
2018-Jan-29 22:30N 24°38' E 122°31'4 8.8
2018-Jan-29 22:00N 24°34' E 122°30'4 8.5
2018-Jan-29 21:30N 24°30' E 122°30'4 7.9
2018-Jan-29 21:00N 24°26' E 122°29'4 7.8
2018-Jan-29 20:30N 24°22' E 122°28'4 7.9
2018-Jan-29 20:00N 24°18' E 122°27'4 7.7
2018-Jan-29 19:30N 24°14' E 122°26'4 7.4
2018-Jan-29 19:00N 24°11' E 122°25'4 7.3
2018-Jan-29 18:30N 24°07' E 122°24'4 7.3
2018-Jan-29 18:00N 24°04' E 122°23'3 7.0
2018-Jan-29 17:30N 24°00' E 122°22'4 6.9
2018-Jan-29 17:00N 23°57' E 122°20'3 6.7
2018-Jan-29 16:30N 23°54' E 122°19'64 6.8
2018-Jan-29 07:04N 22°56' E 121°49'1 7.2
2018-Jan-29 06:52N 22°55' E 121°49'3 6.8
2018-Jan-29 06:28N 22°52' E 121°48'4 6.9
2018-Jan-29 05:53N 22°49' E 121°46'3 6.9
2018-Jan-29 05:30N 22°46' E 121°45'3 6.7
2018-Jan-29 05:00N 22°43' E 121°44'12 6.5
2018-Jan-29 03:10N 22°32' E 121°40'2 6.5
2018-Jan-29 02:54N 22°30' E 121°40'3 6.2
2018-Jan-29 02:30N 22°27' E 121°40'3 6.2
2018-Jan-29 02:00N 22°25' E 121°38'15 5.3
2018-Jan-28 23:12N 22°16' E 121°25'1 5.0
2018-Jan-28 23:00N 22°16' E 121°24'3 5.4
2018-Jan-28 22:30N 22°14' E 121°22'3 5.5
2018-Jan-28 21:59N 22°11' E 121°20'4 5.9
2018-Jan-28 21:21N 22°08' E 121°18'3 6.4
2018-Jan-28 20:57N 22°06' E 121°17'5 7.0
2018-Jan-28 20:18N 22°01' E 121°15'3 6.9
2018-Jan-28 19:52N 21°59' E 121°13'  

Dump ship's entire track history